メインページ
METAR-TAF:

METAR-TAF

空港 :

シェレメーチエヴォ国際空港

モスクワ-シェレメーチエヴォ, ロシア

緯度: 55-58N, 経度: 037-25E, 海抜: 190m

現時点の気象観測

当レポートは38分前の20:00(UTC)に作成
南/南西の風 6kt
気温 1°C
湿度 93%
気圧 1015 hPa
視程: 9000m
高度300ftの曇り

METAR: UUEE 112000Z 20003MPS 9000 OVC003 01/00 Q1015 R24C/510340 R24L/550345 NOSIG

時間: 23:38 (20:38 UTC)

予報

当レポートは3時間38分前の17:00(UTC)に作成
予報は11日の 18時(UTC)から 12日の 18時(UTC)まで有効
の風 6kt
視程: 6000m
高度1100ftの曇り
11日の 15時(UTC)から 12日の 15時(UTC)まで一時的に
視程: 3100m
高度600ftの千切れ雲あり
小雪

TAF: UUEE 111700Z 1118/1218 18003MPS 6000 OVC011 TX00/1115Z TNM02/1200Z TEMPO 1115/1215 3100 -SN BKN006

4,000以上の空港の気象観測と天気予報(METAR報とTAF報)

利用可能な観測所は地図上に黄色い丸と赤い丸で示す。

丸の上にカーソルを重ねると観測所名を参照できる。

次にクリックすると気象観測と天気予報を参照できる。

マップの切り替え:黒色「×」印の緑ボタンをクリックして拡大、「-」印の緑ボタンをクリックして縮小、緑色の三角印をクリックして隣りの地図に切り替え


METAR-TAF: